createdAt,value
2023-04-30T00:00:15.801Z,17.92
2023-04-30T00:02:43.390Z,19.25
2023-04-30T00:05:11.000Z,18.83
2023-04-30T00:07:39.890Z,19.06
2023-04-30T00:10:08.752Z,17.33
2023-04-30T00:12:36.283Z,17.86
2023-04-30T00:15:04.409Z,18.97
2023-04-30T00:17:31.954Z,15.86
2023-04-30T00:19:59.471Z,16.59
2023-04-30T00:22:26.999Z,16.77
2023-04-30T00:24:56.176Z,16.01
2023-04-30T00:27:23.685Z,17.83
2023-04-30T00:29:51.455Z,15.89
2023-04-30T00:32:19.027Z,18.62
2023-04-30T00:34:46.515Z,18.77
2023-04-30T00:37:14.299Z,17.58
2023-04-30T00:39:41.961Z,19.70
2023-04-30T00:42:10.938Z,19.94
2023-04-30T00:44:38.437Z,18.57
2023-04-30T00:47:05.907Z,18.37
2023-04-30T00:49:34.227Z,18.94
2023-04-30T00:52:02.375Z,19.52
2023-04-30T00:54:30.040Z,17.56
2023-04-30T00:56:58.920Z,18.98
2023-04-30T00:59:28.030Z,15.78
2023-04-30T01:01:55.697Z,16.00
2023-04-30T01:04:23.589Z,19.68
2023-04-30T01:06:51.879Z,19.74
2023-04-30T01:09:19.695Z,19.89
2023-04-30T01:11:56.931Z,20.38
2023-04-30T01:14:31.212Z,20.24
2023-04-30T01:17:06.436Z,17.27
2023-04-30T01:19:41.796Z,19.64
2023-04-30T01:22:15.050Z,19.83
2023-04-30T01:25:01.781Z,19.61
2023-04-30T01:27:42.519Z,19.31
2023-04-30T01:30:13.445Z,20.41
2023-04-30T01:32:41.279Z,19.31
2023-04-30T01:35:09.503Z,20.06
2023-04-30T01:37:49.183Z,20.44
2023-04-30T01:40:24.868Z,19.23
2023-04-30T01:43:03.091Z,19.97
2023-04-30T01:45:56.098Z,18.67
2023-04-30T01:48:33.629Z,19.56
2023-04-30T01:51:08.694Z,20.79
2023-04-30T01:53:41.810Z,19.54
2023-04-30T01:56:16.201Z,19.22
2023-04-30T01:58:46.072Z,16.59
2023-04-30T02:01:28.210Z,18.84
2023-04-30T02:03:56.005Z,15.64
2023-04-30T02:06:24.518Z,17.01
2023-04-30T02:08:52.140Z,19.14
2023-04-30T02:11:19.766Z,16.22
2023-04-30T02:13:47.614Z,16.14
2023-04-30T02:16:16.700Z,17.78
2023-04-30T02:18:45.892Z,16.47
2023-04-30T02:21:13.497Z,15.82
2023-04-30T02:23:41.187Z,18.54
2023-04-30T02:26:09.422Z,18.89
2023-04-30T02:28:37.643Z,18.80
2023-04-30T02:31:05.256Z,18.94
2023-04-30T02:33:32.738Z,16.79
2023-04-30T02:36:01.790Z,19.73
2023-04-30T02:38:29.475Z,17.39
2023-04-30T02:40:57.543Z,16.79
2023-04-30T02:43:25.200Z,16.25
2023-04-30T02:45:52.737Z,15.45
2023-04-30T02:48:20.358Z,19.08
2023-04-30T02:50:48.515Z,16.47
2023-04-30T02:53:17.850Z,19.09
2023-04-30T02:55:45.367Z,18.15
2023-04-30T02:58:12.850Z,19.37
2023-04-30T03:00:40.366Z,17.98
2023-04-30T03:03:08.161Z,17.25
2023-04-30T03:05:35.802Z,18.27
2023-04-30T03:08:03.691Z,17.63
2023-04-30T03:10:32.646Z,15.82
2023-04-30T03:13:00.675Z,15.53
2023-04-30T03:15:28.279Z,15.56
2023-04-30T03:17:56.307Z,17.00
2023-04-30T03:20:23.990Z,16.29
2023-04-30T03:22:51.586Z,19.68
2023-04-30T03:25:19.646Z,17.29
2023-04-30T03:27:48.724Z,19.51
2023-04-30T03:30:16.217Z,16.56
2023-04-30T03:32:43.747Z,18.88
2023-04-30T03:35:11.264Z,16.57
2023-04-30T03:37:38.812Z,16.23
2023-04-30T03:40:08.386Z,17.31
2023-04-30T03:42:35.900Z,16.54
2023-04-30T03:45:05.796Z,16.20
2023-04-30T03:47:34.273Z,15.83
2023-04-30T03:50:03.343Z,17.25
2023-04-30T03:52:31.111Z,17.01
2023-04-30T03:54:58.932Z,15.64
2023-04-30T03:57:26.578Z,16.45
2023-04-30T03:59:54.394Z,15.40
2023-04-30T04:02:24.040Z,16.93
2023-04-30T04:04:52.355Z,17.84
2023-04-30T04:07:19.840Z,18.14
2023-04-30T04:09:47.354Z,18.46
2023-04-30T04:12:15.127Z,18.36
2023-04-30T04:14:42.590Z,18.67
2023-04-30T04:17:10.107Z,16.66
2023-04-30T04:19:39.103Z,16.43
2023-04-30T04:22:06.955Z,19.01
2023-04-30T04:24:34.545Z,18.83
2023-04-30T04:27:02.803Z,18.21
2023-04-30T04:29:30.457Z,18.37
2023-04-30T04:31:58.382Z,16.38
2023-04-30T04:34:26.017Z,19.76
2023-04-30T04:36:55.218Z,18.67
2023-04-30T04:39:23.386Z,16.01
2023-04-30T04:41:50.982Z,15.82
2023-04-30T04:44:18.841Z,17.89
2023-04-30T04:46:47.479Z,19.26
2023-04-30T04:49:14.980Z,15.29
2023-04-30T04:51:42.539Z,17.54
2023-04-30T04:54:11.537Z,17.25
2023-04-30T04:56:40.677Z,18.46
2023-04-30T04:59:08.217Z,17.43
2023-04-30T05:01:35.855Z,16.24
2023-04-30T05:04:03.509Z,16.46
2023-04-30T05:06:31.231Z,16.31
2023-04-30T05:08:58.814Z,17.43
2023-04-30T05:11:27.747Z,17.02
2023-04-30T05:13:55.524Z,16.15
2023-04-30T05:16:23.172Z,17.20
2023-04-30T05:18:50.794Z,16.00
2023-04-30T05:21:18.749Z,16.45
2023-04-30T05:23:47.294Z,15.71
2023-04-30T05:26:14.850Z,16.27
2023-04-30T05:28:44.385Z,17.90
2023-04-30T05:31:11.967Z,18.91
2023-04-30T05:33:39.569Z,17.57
2023-04-30T05:36:07.323Z,18.73
2023-04-30T05:38:35.479Z,17.50
2023-04-30T05:41:03.561Z,19.44
2023-04-30T05:43:31.077Z,17.11
2023-04-30T05:46:00.428Z,19.72
2023-04-30T05:48:28.034Z,19.15
2023-04-30T05:50:57.367Z,19.62
2023-04-30T05:53:24.860Z,17.76
2023-04-30T05:55:52.311Z,19.18
2023-04-30T05:58:20.405Z,19.26
2023-04-30T06:00:50.084Z,18.33
2023-04-30T06:03:19.076Z,17.90
2023-04-30T06:05:48.031Z,17.75
2023-04-30T06:08:15.590Z,18.77
2023-04-30T06:10:43.845Z,17.67
2023-04-30T06:13:11.371Z,18.39
2023-04-30T06:15:38.919Z,19.05
2023-04-30T06:18:07.590Z,18.50
2023-04-30T06:20:37.125Z,19.48
2023-04-30T06:23:05.105Z,18.66
2023-04-30T06:25:32.777Z,17.33
2023-04-30T06:28:00.401Z,18.71
2023-04-30T06:30:27.963Z,19.38
2023-04-30T06:32:55.474Z,19.50
2023-04-30T06:35:23.418Z,17.67
2023-04-30T06:37:52.909Z,19.70
2023-04-30T06:40:20.990Z,19.46
2023-04-30T06:42:48.603Z,19.91
2023-04-30T06:45:16.230Z,19.26
2023-04-30T06:47:43.892Z,17.89
2023-04-30T06:50:12.412Z,18.71
2023-04-30T06:52:41.283Z,17.49
2023-04-30T06:55:11.139Z,18.47
2023-04-30T06:57:38.591Z,16.16
2023-04-30T07:00:06.835Z,18.89
2023-04-30T07:02:34.481Z,16.85
2023-04-30T07:05:02.094Z,16.56
2023-04-30T07:07:30.193Z,18.65
2023-04-30T07:09:58.056Z,16.68
2023-04-30T07:12:27.251Z,17.74
2023-04-30T07:14:54.722Z,16.08
2023-04-30T07:17:23.264Z,16.02
2023-04-30T07:19:51.913Z,17.58
2023-04-30T07:22:19.890Z,16.33
2023-04-30T07:24:47.347Z,15.33
2023-04-30T07:27:14.920Z,15.93
2023-04-30T07:29:44.041Z,15.93
2023-04-30T07:32:11.637Z,15.86
2023-04-30T07:34:39.114Z,16.42
2023-04-30T07:37:06.714Z,16.04
2023-04-30T07:39:34.279Z,17.51
2023-04-30T07:42:01.803Z,16.56
2023-04-30T07:44:29.394Z,16.94
2023-04-30T07:46:58.487Z,19.30
2023-04-30T07:49:26.025Z,18.55
2023-04-30T07:51:53.486Z,19.77
2023-04-30T07:54:21.050Z,18.72
2023-04-30T07:56:49.004Z,17.67
2023-04-30T07:59:17.015Z,18.40
2023-04-30T08:01:45.167Z,17.52
2023-04-30T08:04:15.726Z,18.38
2023-04-30T08:06:44.117Z,19.45
2023-04-30T08:09:12.099Z,16.66
2023-04-30T08:11:40.323Z,16.27
2023-04-30T08:14:08.076Z,18.14
2023-04-30T08:16:35.614Z,16.87
2023-04-30T08:19:03.275Z,15.91
2023-04-30T08:21:32.462Z,16.12
2023-04-30T08:24:00.165Z,16.23
2023-04-30T08:26:30.089Z,16.15
2023-04-30T08:28:58.115Z,15.87
2023-04-30T08:31:26.485Z,18.17
2023-04-30T08:33:54.089Z,16.90
2023-04-30T08:36:21.592Z,16.27
2023-04-30T08:38:50.855Z,17.17
2023-04-30T08:41:20.895Z,17.26
2023-04-30T08:43:52.871Z,17.80
2023-04-30T08:46:21.379Z,18.03
2023-04-30T08:48:49.937Z,18.22
2023-04-30T08:51:18.008Z,17.46
2023-04-30T08:53:47.046Z,16.60
2023-04-30T08:56:16.174Z,16.85
2023-04-30T08:58:44.231Z,16.28
2023-04-30T09:01:11.845Z,16.40
2023-04-30T09:03:40.221Z,16.68
2023-04-30T09:06:08.098Z,15.88
2023-04-30T09:08:42.761Z,16.77
2023-04-30T09:11:26.099Z,17.60
2023-04-30T09:13:55.617Z,16.67
2023-04-30T09:16:24.634Z,16.47
2023-04-30T09:18:52.645Z,16.43
2023-04-30T09:21:32.295Z,16.98
2023-04-30T09:24:00.569Z,18.75
2023-04-30T09:26:32.962Z,17.77
2023-04-30T09:29:01.146Z,16.51
2023-04-30T09:31:29.318Z,17.59
2023-04-30T09:33:56.989Z,16.44
2023-04-30T09:36:24.883Z,18.34
2023-04-30T09:38:53.596Z,16.09
2023-04-30T09:41:25.694Z,17.98
2023-04-30T09:43:54.855Z,16.48
2023-04-30T09:46:23.261Z,17.32
2023-04-30T09:48:58.608Z,16.43
2023-04-30T09:51:26.990Z,15.81
2023-04-30T09:53:55.855Z,17.50
2023-04-30T09:56:25.532Z,15.56
2023-04-30T09:58:56.023Z,17.02
2023-04-30T10:01:27.244Z,16.75
2023-04-30T10:03:55.124Z,15.87
2023-04-30T10:06:23.231Z,16.41
2023-04-30T10:08:56.373Z,16.19
2023-04-30T10:11:28.669Z,15.72
2023-04-30T10:14:01.249Z,15.76
2023-04-30T10:16:37.858Z,16.54
2023-04-30T10:19:09.246Z,15.73
2023-04-30T10:21:40.426Z,15.53
2023-04-30T10:24:09.480Z,15.80
2023-04-30T10:26:37.325Z,15.74
2023-04-30T10:29:07.185Z,15.90
2023-04-30T10:31:36.228Z,15.91
2023-04-30T10:34:13.847Z,17.55
2023-04-30T10:36:45.593Z,15.44
2023-04-30T10:39:13.510Z,15.52
2023-04-30T10:41:44.687Z,16.95
2023-04-30T10:44:13.769Z,16.54
2023-04-30T10:46:41.494Z,15.15
2023-04-30T10:49:11.937Z,16.11
2023-04-30T10:51:47.101Z,15.31
2023-04-30T10:54:16.672Z,15.58
2023-04-30T10:56:45.788Z,15.55
2023-04-30T10:59:15.226Z,17.21
2023-04-30T11:01:57.696Z,15.30
2023-04-30T11:04:25.968Z,16.25
2023-04-30T11:07:03.013Z,15.98
2023-04-30T11:09:39.231Z,15.33
2023-04-30T11:12:12.691Z,15.66
2023-04-30T11:14:46.252Z,15.25
2023-04-30T11:17:23.165Z,15.27
2023-04-30T11:19:51.979Z,15.54
2023-04-30T11:22:22.467Z,16.70
2023-04-30T11:25:05.118Z,16.14
2023-04-30T11:27:33.771Z,15.41
2023-04-30T11:30:04.686Z,15.66
2023-04-30T11:32:36.717Z,17.52
2023-04-30T11:35:06.298Z,16.01
2023-04-30T11:37:35.569Z,15.48
2023-04-30T11:40:06.218Z,15.80
2023-04-30T11:42:34.746Z,15.49
2023-04-30T11:45:09.708Z,15.74
2023-04-30T11:47:44.304Z,15.87
2023-04-30T11:50:14.030Z,15.53
2023-04-30T11:52:42.525Z,15.75
2023-04-30T11:55:14.300Z,15.51
2023-04-30T11:57:43.360Z,15.36
2023-04-30T12:00:15.193Z,15.54
2023-04-30T12:02:44.338Z,15.80
2023-04-30T12:05:16.958Z,15.42
2023-04-30T12:07:52.108Z,15.76
2023-04-30T12:10:20.540Z,15.75
2023-04-30T12:12:51.318Z,15.51
2023-04-30T12:15:23.128Z,15.82
2023-04-30T12:17:51.534Z,15.55
2023-04-30T12:20:21.114Z,14.82
2023-04-30T12:22:50.114Z,15.33
2023-04-30T12:25:20.262Z,14.81
2023-04-30T12:27:49.845Z,14.87
2023-04-30T12:30:22.679Z,15.67
2023-04-30T12:32:52.458Z,15.43
2023-04-30T12:35:20.951Z,15.38
2023-04-30T12:37:50.645Z,15.59
2023-04-30T12:40:20.276Z,16.27
2023-04-30T12:42:47.512Z,16.05
2023-04-30T12:45:46.637Z,15.59
2023-04-30T12:48:15.830Z,16.02
2023-04-30T12:50:47.515Z,16.28
2023-04-30T12:53:16.077Z,15.76
2023-04-30T12:55:43.564Z,17.15
2023-04-30T12:58:14.276Z,15.81
2023-04-30T13:00:48.261Z,16.62
2023-04-30T13:03:17.685Z,15.40
2023-04-30T13:05:47.935Z,15.68
2023-04-30T13:08:15.838Z,15.84
2023-04-30T13:10:43.548Z,15.89
2023-04-30T13:13:11.474Z,16.15
2023-04-30T13:15:39.796Z,16.14
2023-04-30T13:18:09.643Z,15.76
2023-04-30T13:20:37.524Z,16.45
2023-04-30T13:23:06.418Z,16.36
2023-04-30T13:25:35.310Z,15.51
2023-04-30T13:28:03.561Z,15.75
2023-04-30T13:30:31.196Z,15.30
2023-04-30T13:32:58.757Z,16.04
2023-04-30T13:35:28.266Z,15.19
2023-04-30T13:37:55.824Z,15.72
2023-04-30T13:40:23.413Z,15.33
2023-04-30T13:42:51.846Z,15.84
2023-04-30T13:45:19.670Z,16.17
2023-04-30T13:47:47.447Z,16.01
2023-04-30T13:50:15.337Z,15.73
2023-04-30T13:52:44.825Z,16.67
2023-04-30T13:55:12.187Z,15.84
2023-04-30T13:57:40.411Z,16.10
2023-04-30T14:00:09.084Z,15.43
2023-04-30T14:02:37.325Z,15.62
2023-04-30T14:05:07.029Z,15.85
2023-04-30T14:07:34.706Z,15.69
2023-04-30T14:10:04.405Z,15.70
2023-04-30T14:12:33.005Z,16.09
2023-04-30T14:15:01.020Z,15.82
2023-04-30T14:17:28.529Z,15.66
2023-04-30T14:19:57.863Z,15.85
2023-04-30T14:22:25.714Z,16.38
2023-04-30T14:24:53.689Z,15.76
2023-04-30T14:27:23.352Z,16.10
2023-04-30T14:29:50.979Z,15.65
2023-04-30T14:32:19.401Z,16.20
2023-04-30T14:34:48.104Z,15.92
2023-04-30T14:37:16.366Z,16.13
2023-04-30T14:39:44.557Z,15.95
2023-04-30T14:42:12.832Z,15.68
2023-04-30T14:44:42.130Z,17.74
2023-04-30T14:47:10.371Z,16.65
2023-04-30T14:49:37.938Z,17.46
2023-04-30T14:52:06.011Z,16.90
2023-04-30T14:54:33.574Z,17.03
2023-04-30T14:57:02.316Z,18.47
2023-04-30T14:59:30.107Z,16.57
2023-04-30T15:01:59.352Z,18.01
2023-04-30T15:04:26.996Z,16.48
2023-04-30T15:06:54.786Z,16.09
2023-04-30T15:09:22.421Z,15.86
2023-04-30T15:11:49.963Z,17.32
2023-04-30T15:14:17.605Z,17.46
2023-04-30T15:16:45.086Z,16.53
2023-04-30T15:19:14.034Z,15.76
2023-04-30T15:21:42.031Z,17.21
2023-04-30T15:24:10.244Z,16.79
2023-04-30T15:26:37.748Z,17.69
2023-04-30T15:29:05.670Z,17.73
2023-04-30T15:31:33.315Z,16.67
2023-04-30T15:34:01.196Z,17.95
2023-04-30T15:36:30.112Z,17.21
2023-04-30T15:38:57.569Z,16.50
2023-04-30T15:41:25.125Z,16.58
2023-04-30T15:43:52.672Z,15.96
2023-04-30T15:46:20.450Z,15.66
2023-04-30T15:48:48.228Z,16.79
2023-04-30T15:51:15.674Z,16.14
2023-04-30T15:53:44.589Z,16.31
2023-04-30T15:56:12.192Z,16.10
2023-04-30T15:58:39.865Z,16.24
2023-04-30T16:01:07.666Z,16.14
2023-04-30T16:03:35.643Z,16.28
2023-04-30T16:06:03.346Z,15.87
2023-04-30T16:08:31.246Z,16.65
2023-04-30T16:11:00.454Z,16.12
2023-04-30T16:13:28.205Z,16.30
2023-04-30T16:15:55.759Z,16.11
2023-04-30T16:18:23.303Z,16.10
2023-04-30T16:20:50.863Z,16.42
2023-04-30T16:23:18.373Z,16.52
2023-04-30T16:25:45.911Z,16.34
2023-04-30T16:28:15.280Z,17.42
2023-04-30T16:30:42.827Z,16.38
2023-04-30T16:33:10.352Z,16.67
2023-04-30T16:35:37.988Z,16.88
2023-04-30T16:38:05.661Z,17.55
2023-04-30T16:40:34.268Z,17.48
2023-04-30T16:43:01.746Z,17.86
2023-04-30T16:45:31.275Z,17.52
2023-04-30T16:47:59.194Z,19.78
2023-04-30T16:50:26.981Z,18.08
2023-04-30T16:52:54.527Z,17.67
2023-04-30T16:55:22.143Z,17.37
2023-04-30T16:57:49.901Z,17.21
2023-04-30T17:00:17.631Z,17.53
2023-04-30T17:02:46.690Z,17.56
2023-04-30T17:05:14.488Z,17.40
2023-04-30T17:07:42.518Z,17.58
2023-04-30T17:10:11.126Z,17.71
2023-04-30T17:12:40.035Z,17.23
2023-04-30T17:15:08.466Z,16.79
2023-04-30T17:17:36.030Z,17.16
2023-04-30T17:20:05.958Z,17.22
2023-04-30T17:22:33.648Z,17.64
2023-04-30T17:25:01.937Z,17.81
2023-04-30T17:27:29.663Z,17.25
2023-04-30T17:29:57.390Z,18.20
2023-04-30T17:32:25.289Z,17.82
2023-04-30T17:34:53.141Z,17.32
2023-04-30T17:37:22.212Z,18.01
2023-04-30T17:39:49.754Z,17.43
2023-04-30T17:42:17.213Z,17.95
2023-04-30T17:44:44.855Z,18.11
2023-04-30T17:47:13.217Z,17.40
2023-04-30T17:49:42.641Z,18.21
2023-04-30T17:52:10.261Z,18.10
2023-04-30T17:54:39.235Z,17.70
2023-04-30T17:57:06.787Z,18.16
2023-04-30T17:59:34.350Z,17.71
2023-04-30T18:02:02.386Z,17.83
2023-04-30T18:04:30.948Z,17.65
2023-04-30T18:06:59.846Z,17.80
2023-04-30T18:09:28.325Z,17.60
2023-04-30T18:11:59.515Z,17.84
2023-04-30T18:14:28.175Z,17.99
2023-04-30T18:16:55.857Z,18.08
2023-04-30T18:19:23.916Z,18.47
2023-04-30T18:21:51.652Z,18.24
2023-04-30T18:24:19.258Z,18.37
2023-04-30T18:26:46.922Z,17.96
2023-04-30T18:29:17.685Z,18.13
2023-04-30T18:31:45.407Z,18.24
2023-04-30T18:34:13.023Z,18.08
2023-04-30T18:36:40.652Z,18.47
2023-04-30T18:39:08.157Z,17.76
2023-04-30T18:41:35.670Z,18.44
2023-04-30T18:44:03.301Z,18.58
2023-04-30T18:46:32.254Z,18.16
2023-04-30T18:48:59.778Z,18.18
2023-04-30T18:51:27.739Z,18.34
2023-04-30T18:53:55.311Z,17.96
2023-04-30T18:56:22.834Z,18.98
2023-04-30T18:58:50.355Z,18.74
2023-04-30T19:01:18.442Z,18.67
2023-04-30T19:03:47.496Z,18.08
2023-04-30T19:06:14.992Z,18.67
2023-04-30T19:08:45.620Z,18.14
2023-04-30T19:11:14.055Z,18.33
2023-04-30T19:13:41.872Z,18.38
2023-04-30T19:16:09.764Z,18.06
2023-04-30T19:18:37.238Z,18.39
2023-04-30T19:21:06.187Z,18.65
2023-04-30T19:23:34.257Z,18.57
2023-04-30T19:26:02.293Z,18.34
2023-04-30T19:28:30.292Z,18.38
2023-04-30T19:30:57.858Z,18.19
2023-04-30T19:33:26.191Z,18.55
2023-04-30T19:35:54.421Z,18.78
2023-04-30T19:38:23.466Z,19.03
2023-04-30T19:40:53.235Z,18.79
2023-04-30T19:43:21.398Z,18.34
2023-04-30T19:45:52.292Z,18.96
2023-04-30T19:48:20.531Z,18.87
2023-04-30T19:50:49.734Z,18.87
2023-04-30T19:53:17.721Z,18.25
2023-04-30T19:55:47.238Z,18.71
2023-04-30T19:58:14.975Z,18.33
2023-04-30T20:00:44.765Z,18.52
2023-04-30T20:03:13.595Z,18.48
2023-04-30T20:05:41.352Z,18.99
2023-04-30T20:08:09.496Z,18.69
2023-04-30T20:10:38.405Z,19.24
2023-04-30T20:13:07.593Z,18.64
2023-04-30T20:15:35.321Z,19.01
2023-04-30T20:18:02.890Z,19.12
2023-04-30T20:20:30.418Z,19.08
2023-04-30T20:22:58.081Z,19.06
2023-04-30T20:25:26.008Z,18.99
2023-04-30T20:27:53.458Z,18.66
2023-04-30T20:30:22.531Z,19.17
2023-04-30T20:32:50.083Z,18.84
2023-04-30T20:35:17.603Z,18.98
2023-04-30T20:37:45.206Z,18.47
2023-04-30T20:40:13.413Z,18.54
2023-04-30T20:42:40.998Z,18.78
2023-04-30T20:45:10.082Z,19.42
2023-04-30T20:47:39.801Z,18.70
2023-04-30T20:50:07.547Z,18.59
2023-04-30T20:52:34.860Z,18.85
2023-04-30T20:55:02.287Z,18.64
2023-04-30T20:57:29.376Z,18.58
2023-04-30T20:59:56.734Z,18.57
2023-04-30T21:02:24.182Z,18.46
2023-04-30T21:04:52.882Z,18.76
2023-04-30T21:07:20.019Z,18.59
2023-04-30T21:09:47.146Z,19.02
2023-04-30T21:12:14.243Z,18.58
2023-04-30T21:14:41.322Z,18.56
2023-04-30T21:17:08.573Z,18.87
2023-04-30T21:19:35.680Z,18.57
2023-04-30T21:22:04.829Z,19.39
2023-04-30T21:24:31.940Z,18.80
2023-04-30T21:26:59.045Z,18.66
2023-04-30T21:29:26.715Z,18.86
2023-04-30T21:31:53.823Z,18.80
2023-04-30T21:34:21.098Z,18.66
2023-04-30T21:36:48.224Z,19.52
2023-04-30T21:39:16.726Z,18.61
2023-04-30T21:41:43.926Z,18.75
2023-04-30T21:44:10.985Z,19.35
2023-04-30T21:46:38.453Z,18.84
2023-04-30T21:49:05.525Z,18.72
2023-04-30T21:51:33.170Z,19.65
2023-04-30T21:54:00.237Z,19.00
2023-04-30T21:56:28.791Z,19.52
2023-04-30T21:58:56.038Z,18.75
2023-04-30T22:01:23.133Z,19.50
2023-04-30T22:03:50.325Z,19.43
2023-04-30T22:06:17.394Z,19.44
2023-04-30T22:08:44.429Z,19.06
2023-04-30T22:11:11.574Z,19.02
2023-04-30T22:13:40.652Z,19.63
2023-04-30T22:16:07.901Z,19.45
2023-04-30T22:18:35.204Z,19.01
2023-04-30T22:21:02.318Z,19.57
2023-04-30T22:23:29.483Z,18.69
2023-04-30T22:25:56.794Z,19.05
2023-04-30T22:28:23.904Z,19.13
2023-04-30T22:30:57.326Z,18.81
2023-04-30T22:33:24.554Z,19.59
2023-04-30T22:35:51.606Z,18.94
2023-04-30T22:38:18.658Z,19.51
2023-04-30T22:40:45.830Z,19.00
2023-04-30T22:43:13.738Z,19.59
2023-04-30T22:45:40.967Z,18.96
2023-04-30T22:48:10.289Z,19.32
2023-04-30T22:50:37.766Z,19.25
2023-04-30T22:53:04.844Z,18.93
2023-04-30T22:55:31.917Z,19.69
2023-04-30T22:57:59.088Z,19.75
2023-04-30T23:00:26.479Z,19.23
2023-04-30T23:02:53.641Z,18.97
2023-04-30T23:05:22.394Z,19.59
2023-04-30T23:07:49.530Z,19.20
2023-04-30T23:10:16.786Z,19.01
2023-04-30T23:12:43.929Z,19.13
2023-04-30T23:15:11.169Z,19.67
2023-04-30T23:17:38.249Z,19.50
2023-04-30T23:20:05.973Z,19.22
2023-04-30T23:22:34.479Z,19.62
2023-04-30T23:25:01.641Z,19.00
2023-04-30T23:27:28.875Z,19.88
2023-04-30T23:29:56.172Z,18.98
2023-04-30T23:32:24.258Z,19.83
2023-04-30T23:34:52.198Z,19.60
2023-04-30T23:37:19.385Z,19.90
2023-04-30T23:39:47.950Z,19.86
2023-04-30T23:42:15.029Z,19.89
2023-04-30T23:44:42.150Z,19.34
2023-04-30T23:47:09.333Z,19.74
2023-04-30T23:49:36.417Z,19.13
2023-04-30T23:52:04.467Z,19.33
2023-04-30T23:54:31.629Z,20.01
2023-04-30T23:57:00.201Z,19.98
2023-04-30T23:59:27.856Z,19.64
